Latest Weather Observations for Warracknabeal Airport

IDV60801

Issued at 10:32 am EDT Sunday 20 January 2019 (issued every 10 minutes, with the page automatically refreshed every 10 minutes)

About weather observations | Map of weather stations | Latest weather observations for VIC | Other Formats
Station Details ID: 078018 Name: WARRACKNABEAL AIRPORT Lat: -36.32 Lon: 142.42 Height: 118.3 m
Data from the previous 72 hours. | See also: Recent months at Warracknabeal Airport
Date/Time
EDT
Temp
°C
App
Temp
°C
Dew
Point
°C
Rel
Hum
%
Delta-T
°C
Wind Press
QNH
hPa
Press
MSL
hPa
Rain since
9am
mm
Dir  Spd
km/h
Gust
km/h
Spd
kts
Gust
kts
20/10:30am 24.8 20.3 12.7 47 7.0 SSE 28 37 15 20 1020.3 1019.9 0.0
20/10:00am 23.5 19.3 12.5 50 6.3 SSE 26 32 14 17 1020.5 1020.1 0.0
20/09:30am 21.5 17.5 11.8 54 5.5 SSE 24 33 13 18 1020.7 1020.3 0.0
20/09:00am 20.3 16.5 11.2 56 5.0 S 22 32 12 17 1020.7 1020.3 0.0
20/08:30am 18.3 13.7 9.6 57 4.6 SSE 24 32 13 17 1020.8 1020.4 0.0
20/08:00am 16.3 12.7 10.4 68 3.1 S 20 28 11 15 1020.7 1020.3 0.0
20/07:30am 14.8 12.5 10.4 75 2.3 SSW 13 17 7 9 1020.5 1020.1 0.0
20/07:00am 13.6 10.8 10.0 79 1.9 S 15 19 8 10 1020.2 1019.8 0.0
20/06:30am 13.1 10.2 9.5 79 1.8 SSW 15 19 8 10 1019.9 1019.5 0.0
20/06:00am 14.1 11.1 10.5 79 1.9 S 17 24 9 13 1020.0 1019.6 0.0
20/05:30am 14.6 11.3 11.0 79 1.9 S 19 26 10 14 1019.9 1019.5 0.0
20/05:00am 15.0 10.3 10.8 76 2.2 SSE 26 30 14 16 1019.8 1019.4 0.0
20/04:30am 15.1 10.7 10.5 74 2.4 SSE 24 32 13 17 1019.9 1019.5 0.0
20/04:00am 15.3 11.2 10.1 71 2.7 SSE 22 28 12 15 1020.3 1019.9 0.0
20/03:30am 15.2 11.5 10.0 71 2.7 SSE 20 26 11 14 1020.6 1020.2 0.0
20/03:00am 15.4 11.1 9.3 67 3.1 SSE 22 30 12 16 1020.9 1020.5 0.0
20/02:30am 15.7 11.6 8.7 63 3.6 SSE 20 28 11 15 1021.0 1020.6 0.0
20/02:00am 16.1 11.5 8.1 59 4.0 S 22 30 12 16 1020.9 1020.5 0.0
20/01:30am 16.9 11.4 7.5 54 4.7 S 26 33 14 18 1020.7 1020.3 0.0
20/01:00am 17.5 12.7 7.5 52 5.0 S 22 30 12 16 1020.9 1020.5 0.0
20/12:30am 18.0 12.8 7.4 50 5.4 SSE 24 32 13 17 1020.7 1020.3 0.0
20/12:00am 18.9 13.0 7.4 47 5.8 SSE 28 35 15 19 1020.8 1020.4 0.0
 
Date/Time
EDT
Temp
°C
App
Temp
°C
Dew
Point
°C
Rel
Hum
%
Delta-T
°C
Wind Press
QNH
hPa
Press
MSL
hPa
Rain since
9am
mm
Dir  Spd
km/h
Gust
km/h
Spd
kts
Gust
kts
19/11:30pm 19.8 14.4 6.5 42 6.7 S 24 35 13 19 1020.8 1020.4 0.0
19/11:00pm 20.8 15.2 5.2 36 7.7 S 24 30 13 16 1020.6 1020.2 0.0
19/10:30pm 21.3 16.5 5.6 36 7.9 SSE 20 28 11 15 1020.0 1019.6 0.0
19/10:00pm 22.6 17.3 5.1 32 8.7 SSE 22 30 12 16 1019.8 1019.4 0.0
19/09:30pm 23.7 18.6 4.1 28 9.7 SSE 20 24 11 13 1019.6 1019.2 0.0
19/09:00pm 24.9 19.3 3.5 25 10.5 SE 22 30 12 16 1018.9 1018.4 0.0
19/08:30pm 26.4 21.2 3.6 23 11.4 SSE 20 28 11 15 1018.4 1017.9 0.0
19/08:00pm 28.2 22.2 3.1 20 12.5 SE 24 32 13 17 1018.0 1017.5 0.0
19/07:30pm 29.1 24.0 3.9 20 12.9 SSE 20 28 11 15 1017.8 1017.3 0.0
19/07:00pm 29.9 24.7 3.8 19 13.3 SSE 20 30 11 16 1017.5 1017.0 0.0
19/06:30pm 30.6 24.8 4.4 19 13.6 SSE 24 35 13 19 1017.4 1016.9 0.0
19/06:00pm 30.7 25.4 5.2 20 13.4 S 22 32 12 17 1017.3 1016.8 0.0
19/05:30pm 30.4 25.3 4.2 19 13.5 S 20 30 11 16 1017.9 1017.4 0.0
19/05:00pm 29.9 24.4 3.8 19 13.3 S 22 32 12 17 1018.3 1017.8 0.0
19/04:30pm 29.2 23.1 2.5 18 13.3 SSW 24 37 13 20 1018.7 1018.2 0.0
19/04:00pm 29.8 24.1 2.9 18 13.5 SSW 22 32 12 17 1019.1 1018.6 0.0
19/03:30pm 28.5 22.5 3.4 20 12.7 SSW 24 39 13 21 1019.6 1019.2 0.0
19/03:00pm 28.2 21.5 3.8 21 12.3 S 28 41 15 22 1019.7 1019.3 0.0
19/02:30pm 27.9 21.9 3.6 21 12.2 S 24 39 13 21 1020.0 1019.6 0.0
19/02:00pm 27.7 21.3 3.4 21 12.2 SSW 26 35 14 19 1020.3 1019.9 0.0
19/01:30pm 25.9 19.5 1.2 20 11.8 SSW 24 35 13 19 1020.7 1020.3 0.0
19/01:00pm 25.7 19.3 3.0 23 11.1 S 26 35 14 19 1021.0 1020.6 0.0
19/12:30pm 25.0 18.7 5.7 29 9.9 S 28 37 15 20 1021.3 1020.9 0.0
19/12:00pm 24.4 17.9 4.7 28 9.9 SSW 28 37 15 20 1021.6 1021.2 0.0
19/11:30am 22.8 17.3 6.1 34 8.5 SSW 24 35 13 19 1021.7 1021.3 0.0
19/11:00am 21.9 16.7 8.8 43 7.0 S 26 37 14 20 1021.7 1021.3 0.0
19/10:30am 20.9 15.8 9.2 47 6.3 S 26 35 14 19 1021.8 1021.4 0.0
19/10:00am 19.7 15.5 9.6 52 5.4 S 22 32 12 17 1022.0 1021.6 0.0
19/09:30am 18.8 14.0 10.4 58 4.5 SSW 26 33 14 18 1021.9 1021.5 0.0
19/09:00am 17.6 12.9 10.5 63 3.8 SSW 26 32 14 17 1021.6 1021.2 1.0
19/08:30am 16.6 12.8 11.3 71 2.9 SSW 22 28 12 15 1021.0 1020.6 1.0
19/08:00am 15.1 11.8 11.5 79 1.9 SSW 20 26 11 14 1020.5 1020.1 1.0
19/07:30am 13.4 9.6 11.1 86 1.2 SSW 22 28 12 15 1020.2 1019.8 1.0
19/07:00am 12.5 8.2 10.9 90 0.8 SSW 24 30 13 16 1019.5 1019.0 1.0
19/06:30am 12.1 7.8 10.7 91 0.7 SSW 24 28 13 15 1019.3 1018.8 1.0
19/06:00am 12.5 9.0 10.9 90 0.8 SSW 20 24 11 13 1019.1 1018.6 1.0
19/05:30am 13.1 9.7 11.2 88 1.0 SSW 20 28 11 15 1018.5 1018.0 1.0
19/05:00am 13.4 10.0 11.3 87 1.1 SSW 20 26 11 14 1018.3 1017.8 1.0
19/04:30am 13.8 10.2 11.7 87 1.1 SSW 22 26 12 14 1018.4 1017.9 1.0
19/04:00am 14.3 11.3 11.8 85 1.3 SSW 19 22 10 12 1018.5 1018.0 1.0
19/03:30am 15.0 12.7 11.8 81 1.7 SSW 15 19 8 10 1018.5 1018.0 1.0
19/03:00am 15.4 12.7 11.6 78 2.1 S 17 22 9 12 1018.4 1017.9 1.0
19/02:30am 15.2 12.4 11.4 78 2.0 SSW 17 22 9 12 1018.3 1017.8 1.0
19/02:00am 15.6 12.6 12.0 79 2.0 SSW 19 24 10 13 1018.0 1017.5 1.0
19/01:30am 15.1 13.0 11.3 78 2.0 SSW 13 15 7 8 1017.9 1017.4 1.0
19/01:00am 16.0 14.0 11.4 74 2.5 SSW 13 15 7 8 1017.7 1017.2 1.0
19/12:30am 17.1 14.8 11.8 71 2.9 SSW 15 20 8 11 1017.4 1016.9 1.0
19/12:00am 17.6 15.3 11.6 68 3.3 S 15 19 8 10 1017.2 1016.7 1.0
 
Date/Time
EDT
Temp
°C
App
Temp
°C
Dew
Point
°C
Rel
Hum
%
Delta-T
°C
Wind Press
QNH
hPa
Press
MSL
hPa
Rain since
9am
mm
Dir  Spd
km/h
Gust
km/h
Spd
kts
Gust
kts
18/11:30pm 18.4 15.6 11.2 63 3.9 S 17 24 9 13 1017.2 1016.7 1.0
18/11:00pm 19.4 14.5 11.2 59 4.5 S 28 41 15 22 1016.6 1016.2 1.0
18/10:30pm 20.1 13.5 9.9 52 5.5 SSW 35 43 19 23 1015.6 1015.2 1.0
18/10:00pm 21.0 16.3 9.3 47 6.3 SSW 24 35 13 19 1014.6 1014.2 1.0
18/09:30pm 22.1 15.8 10.9 49 6.2 SSW 35 46 19 25 1014.0 1013.6 1.0
18/09:00pm 23.0 18.7 12.0 50 6.2 SW 26 35 14 19 1013.4 1013.0 1.0
18/08:30pm 23.5 17.9 11.5 47 6.8 SSW 32 41 17 22 1012.8 1012.4 1.0
18/08:00pm 24.0 19.3 12.0 47 6.9 SW 28 35 15 19 1012.8 1012.4 1.0
18/07:30pm 24.5 20.1 11.8 45 7.2 SW 26 35 14 19 1013.0 1012.6 1.0
18/07:00pm 24.7 20.5 13.6 50 6.5 SW 28 39 15 21 1012.0 1011.5 1.0
18/06:30pm 24.5 20.1 14.0 52 6.2 SW 30 43 16 23 1011.0 1010.5 1.0
18/06:00pm 23.3 20.2 15.6 62 4.7 SW 26 35 14 19 1009.8 1009.3 1.0
18/05:30pm 24.7 20.8 15.6 57 5.5 WSW 30 43 16 23 1011.1 1010.6 1.0
18/05:00pm 24.2 20.8 17.7 67 4.1 WSW 32 41 17 22 1010.9 1010.4 0.8
18/04:30pm 24.5 19.3 17.5 65 4.4 SW 41 50 22 27 1009.8 1009.3 0.4
18/04:23pm 25.4 22.0 18.1 64 4.6 SW 33 48 18 26 1009.3 1008.8 0.4
18/04:00pm 26.0 25.0 18.9 65 4.6 WSW 22 30 12 16 1010.7 1010.2 0.4
18/03:30pm 26.0 26.5 19.2 66 4.4 W 15 19 8 10 1010.6 1010.1 0.2
18/03:00pm 28.9 26.9 16.5 47 7.8 W 22 30 12 16 1010.3 1009.8 0.0
18/02:30pm 28.4 27.4 16.7 49 7.3 W 17 22 9 12 1010.4 1009.9 0.0
18/02:00pm 28.1 26.7 17.0 51 7.0 WSW 20 24 11 13 1009.8 1009.3 0.0
18/01:30pm 28.7 27.6 16.3 47 7.7 WSW 17 24 9 13 1009.9 1009.4 0.0
18/01:00pm 28.3 27.4 16.9 50 7.2 WSW 17 20 9 11 1009.2 1008.7 0.0
18/12:30pm 28.4 28.1 17.3 51 7.0 WSW 15 19 8 10 1008.9 1008.4 0.0
18/12:00pm 28.3 30.5 19.2 57 5.9 NE 6 13 3 7 1008.8 1008.3 0.0
18/11:30am 29.9 31.2 15.2 41 9.1 - 2 9 1 5 1008.8 1008.3 0.0
18/11:00am 30.5 31.9 15.4 40 9.4 SW 2 7 1 4 1008.9 1008.4 0.0
18/10:30am 29.0 29.4 13.6 38 9.2 SW 4 9 2 5 1008.8 1008.3 0.0
18/10:00am 28.9 28.9 14.3 40 8.9 SW 7 11 4 6 1008.1 1007.7 0.0
18/09:30am 28.2 27.7 14.8 44 8.2 W 11 15 6 8 1009.0 1008.5 0.0
18/09:00am 28.1 26.5 15.1 45 8.0 SW 17 20 9 11 1009.5 1009.0 0.0
18/08:30am 26.2 24.5 14.6 48 7.0 SW 17 20 9 11 1009.4 1008.9 0.0
18/08:00am 25.8 24.8 14.6 50 6.7 SSW 13 17 7 9 1008.3 1007.8 0.0
18/07:30am 24.1 23.4 14.2 54 5.9 SW 11 15 6 8 1007.9 1007.5 0.0
18/07:00am 23.7 21.8 14.1 55 5.7 SW 17 22 9 12 1008.1 1007.7 0.0
18/06:30am 22.8 23.1 14.4 59 5.0 ENE 6 7 3 4 1007.4 1007.0 0.0
18/06:00am 22.6 22.1 13.9 58 5.1 ENE 9 11 5 6 1007.0 1006.6 0.0
18/05:30am 23.0 22.9 13.8 56 5.4 ENE 7 9 4 5 1007.0 1006.6 0.0
18/05:00am 23.3 22.8 13.8 55 5.6 ENE 9 11 5 6 1006.9 1006.5 0.0
18/04:30am 23.8 22.7 14.2 55 5.7 E 13 17 7 9 1006.3 1005.9 0.0
18/04:00am 24.2 23.8 14.0 53 6.0 E 9 11 5 6 1006.5 1006.1 0.0
18/03:30am 25.4 24.7 14.2 50 6.7 E 11 13 6 7 1006.5 1006.1 0.0
18/03:00am 26.0 24.5 14.1 47 7.1 E 15 19 8 10 1006.6 1006.2 0.0
18/02:30am 26.7 25.2 14.1 46 7.5 E 15 19 8 10 1007.0 1006.6 0.0
18/02:00am 26.1 24.6 14.2 48 7.1 ESE 15 19 8 10 1007.5 1007.1 0.0
18/01:30am 26.1 24.6 14.2 48 7.1 ESE 15 19 8 10 1008.5 1008.0 0.0
18/01:00am 25.9 24.4 14.1 48 7.0 SSE 15 19 8 10 1008.9 1008.4 0.0
18/12:30am 26.9 24.9 14.0 45 7.7 SSE 17 19 9 10 1008.8 1008.3 0.0
18/12:00am 27.2 25.2 13.9 44 8.0 SSW 17 22 9 12 1009.9 1009.4 0.0
 
Date/Time
EDT
Temp
°C
App
Temp
°C
Dew
Point
°C
Rel
Hum
%
Delta-T
°C
Wind Press
QNH
hPa
Press
MSL
hPa
Rain since
9am
mm
Dir  Spd
km/h
Gust
km/h
Spd
kts
Gust
kts
17/11:30pm 27.5 26.1 13.4 41 8.4 SSW 13 17 7 9 1009.5 1009.0 0.0
17/11:00pm 27.4 25.2 13.4 42 8.3 SSW 17 19 9 10 1009.6 1009.1 0.0
17/10:30pm 28.1 26.8 13.6 41 8.7 SSW 13 17 7 9 1009.5 1009.0 0.0
17/10:00pm 28.2 26.8 13.3 40 8.9 SSW 13 17 7 9 1009.5 1009.0 0.0
17/09:30pm 28.8 26.9 13.1 38 9.3 SSW 15 19 8 10 1009.5 1009.0 0.0
17/09:00pm 29.6 26.7 12.9 35 9.9 SW 20 28 11 15 1009.1 1008.6 0.0
17/08:30pm 30.3 25.8 12.7 34 10.4 SSW 28 37 15 20 1008.8 1008.3 0.0
17/08:00pm 30.9 26.8 12.8 33 10.8 SW 26 33 14 18 1008.6 1008.1 0.0
17/07:30pm 31.8 26.0 12.6 31 11.5 SW 35 44 19 24 1008.3 1007.8 0.0
17/07:00pm 32.8 26.7 11.9 28 12.4 SSW 35 48 19 26 1007.8 1007.4 0.0
17/06:30pm 34.5 27.4 11.0 24 13.8 SW 39 50 21 27 1007.3 1006.9 0.0
17/06:05pm 35.4 29.5 10.4 22 14.6 SW 32 50 17 27 1007.0 1006.6 0.0
17/06:00pm 35.5 29.4 10.5 22 14.7 SW 33 50 18 27 1007.0 1006.6 0.0
17/05:30pm 36.3 29.6 9.8 20 15.4 SW 35 48 19 26 1007.1 1006.7 0.0
17/05:00pm 36.6 30.0 10.0 20 15.6 SW 35 48 19 26 1007.2 1006.8 0.0
17/04:40pm 37.8 33.3 10.2 19 16.3 WSW 24 56 13 30 1007.2 1006.8 0.0
17/04:30pm 38.3 34.0 10.6 19 16.5 SW 24 32 13 17 1007.1 1006.7 0.0
17/04:00pm 37.4 35.8 11.4 21 15.6 WNW 11 22 6 12 1007.2 1006.8 0.0
17/03:30pm 37.6 33.9 11.5 21 15.7 SSW 22 32 12 17 1007.8 1007.4 0.0
17/03:00pm 36.3 32.0 11.9 23 14.7 SW 26 39 14 21 1008.3 1007.8 0.0
17/02:30pm 36.9 32.7 12.4 23 14.9 SW 26 43 14 23 1008.5 1008.0 0.0
17/02:00pm 37.4 31.4 12.1 22 15.3 SSW 35 46 19 25 1008.6 1008.1 0.0
17/01:38pm 37.2 31.5 11.9 22 15.3 SW 33 54 18 29 1008.5 1008.0 0.0
17/01:30pm 37.0 31.1 11.1 21 15.4 SW 33 48 18 26 1008.6 1008.1 0.0
17/01:15pm 36.5 29.9 11.3 22 15.0 SW 37 50 20 27 1008.6 1008.1 0.0
17/01:06pm 37.0 31.8 10.3 20 15.7 SW 28 48 15 26 1008.7 1008.2 0.0
17/01:00pm 38.1 33.5 11.2 20 16.1 SW 26 39 14 21 1008.7 1008.2 0.0
17/12:30pm 37.6 33.4 12.3 22 15.4 WSW 26 43 14 23 1008.9 1008.4 0.0
17/12:18pm 36.8 31.8 10.9 21 15.4 SW 28 46 15 25 1009.0 1008.5 0.0
17/12:00pm 36.6 33.6 12.1 23 14.8 SW 19 28 10 15 1009.0 1008.5 0.0
17/11:30am 33.9 33.3 11.7 26 13.2 S 6 13 3 7 1009.1 1008.6 0.0
17/11:00am 32.9 32.8 12.0 28 12.4 S 4 7 2 4 1009.1 1008.6 0.0

Other Formats:

Comma delimited format used in spreadsheet applications
http://www.bom.gov.au/fwo/IDV60801/IDV60801.94920.axf

JavaScript Object Notation format (JSON) in row-major order
http://www.bom.gov.au/fwo/IDV60801/IDV60801.94920.json